createdAt,value
2023-01-12T00:00:02.813Z,98778.63
2023-01-12T00:01:13.558Z,98780.19
2023-01-12T00:02:16.301Z,98786.50
2023-01-12T00:03:17.659Z,98781.25
2023-01-12T00:04:19.133Z,98777.06
2023-01-12T00:05:20.539Z,98785.47
2023-01-12T00:06:22.237Z,98779.94
2023-01-12T00:07:23.492Z,98779.41
2023-01-12T00:08:24.695Z,98778.88
2023-01-12T00:09:26.458Z,98787.81
2023-01-12T00:10:27.665Z,98785.97
2023-01-12T00:11:29.384Z,98780.47
2023-01-12T00:12:30.641Z,98782.31
2023-01-12T00:13:33.068Z,98776.00
2023-01-12T00:14:34.746Z,98778.63
2023-01-12T00:15:35.958Z,98774.44
2023-01-12T00:16:37.364Z,98779.16
2023-01-12T00:17:38.854Z,98774.44
2023-01-12T00:18:40.249Z,98782.84
2023-01-12T00:19:41.527Z,98774.94
2023-01-12T00:20:47.436Z,98770.47
2023-01-12T00:21:50.211Z,98773.63
2023-01-12T00:22:51.417Z,98765.19
2023-01-12T00:23:52.646Z,98768.88
2023-01-12T00:24:53.925Z,98759.94
2023-01-12T00:25:55.131Z,98768.88
2023-01-12T00:26:57.266Z,98765.47
2023-01-12T00:27:58.592Z,98766.53
2023-01-12T00:28:59.827Z,98759.13
2023-01-12T00:30:01.071Z,98756.25
2023-01-12T00:31:03.706Z,98759.94
2023-01-12T00:32:05.704Z,98764.94
2023-01-12T00:33:06.939Z,98757.28
2023-01-12T00:34:08.361Z,98765.19
2023-01-12T00:35:09.580Z,98762.00
2023-01-12T00:36:12.219Z,98761.75
2023-01-12T00:37:13.847Z,98767.81
2023-01-12T00:38:15.339Z,98759.13
2023-01-12T00:39:17.042Z,98762.00
2023-01-12T00:40:18.552Z,98756.47
2023-01-12T00:41:19.888Z,98762.00
2023-01-12T00:42:21.204Z,98760.69
2023-01-12T00:43:22.421Z,98759.91
2023-01-12T00:44:24.194Z,98754.38
2023-01-12T00:45:25.599Z,98752.78
2023-01-12T00:46:30.754Z,98751.47
2023-01-12T00:47:32.257Z,98757.78
2023-01-12T00:48:33.533Z,98754.09
2023-01-12T00:49:35.426Z,98764.38
2023-01-12T00:50:36.727Z,98760.69
2023-01-12T00:51:38.000Z,98756.97
2023-01-12T00:52:39.376Z,98751.72
2023-01-12T00:53:40.666Z,98756.47
2023-01-12T00:54:42.299Z,98754.06
2023-01-12T00:55:43.588Z,98751.19
2023-01-12T00:56:44.804Z,98750.38
2023-01-12T00:57:46.081Z,98746.97
2023-01-12T00:58:47.394Z,98746.94
2023-01-12T00:59:48.705Z,98748.00
2023-01-12T01:00:50.016Z,98740.63
2023-01-12T01:01:51.736Z,98737.72
2023-01-12T01:02:53.037Z,98735.63
2023-01-12T01:03:54.628Z,98746.16
2023-01-12T01:04:55.924Z,98734.03
2023-01-12T01:06:04.334Z,98733.25
2023-01-12T01:07:05.552Z,98733.00
2023-01-12T01:08:06.808Z,98736.13
2023-01-12T01:09:08.275Z,98745.88
2023-01-12T01:10:10.328Z,98747.97
2023-01-12T01:11:12.486Z,98739.56
2023-01-12T01:12:13.689Z,98740.63
2023-01-12T01:13:14.915Z,98734.28
2023-01-12T01:14:16.150Z,98739.84
2023-01-12T01:15:17.448Z,98746.16
2023-01-12T01:16:18.947Z,98742.97
2023-01-12T01:17:20.280Z,98738.50
2023-01-12T01:18:21.477Z,98746.16
2023-01-12T01:19:22.726Z,98744.31
2023-01-12T01:20:24.197Z,98746.94
2023-01-12T01:21:25.528Z,98748.25
2023-01-12T01:22:26.927Z,98753.25
2023-01-12T01:23:28.986Z,98753.81
2023-01-12T01:24:30.250Z,98749.31
2023-01-12T01:25:32.597Z,98760.94
2023-01-12T01:26:33.971Z,98759.06
2023-01-12T01:27:35.236Z,98765.13
2023-01-12T01:28:39.931Z,98760.13
2023-01-12T01:29:41.450Z,98761.97
2023-01-12T01:30:42.904Z,98759.56
2023-01-12T01:31:44.305Z,98762.97
2023-01-12T01:32:45.584Z,98758.75
2023-01-12T01:33:47.032Z,98758.22
2023-01-12T01:34:48.447Z,98757.94
2023-01-12T01:35:49.778Z,98758.47
2023-01-12T01:36:51.266Z,98750.28
2023-01-12T01:37:52.710Z,98751.09
2023-01-12T01:38:54.107Z,98764.75
2023-01-12T01:39:55.433Z,98757.41
2023-01-12T01:40:56.697Z,98760.81
2023-01-12T01:41:57.970Z,98762.38
2023-01-12T01:42:59.358Z,98759.22
2023-01-12T01:44:02.053Z,98763.41
2023-01-12T01:45:04.533Z,98759.47
2023-01-12T01:46:09.345Z,98759.47
2023-01-12T01:47:21.608Z,98753.09
2023-01-12T01:48:23.854Z,98753.06
2023-01-12T01:49:36.566Z,98757.81
2023-01-12T01:50:43.053Z,98757.31
2023-01-12T01:51:45.199Z,98753.34
2023-01-12T01:52:51.682Z,98754.13
2023-01-12T01:53:52.981Z,98755.44
2023-01-12T01:55:01.147Z,98755.44
2023-01-12T01:56:07.909Z,98755.38
2023-01-12T01:57:11.243Z,98759.31
2023-01-12T01:58:20.101Z,98760.38
2023-01-12T01:59:24.422Z,98757.19
2023-01-12T02:00:25.841Z,98755.91
2023-01-12T02:01:27.508Z,98756.16
2023-01-12T02:02:29.057Z,98757.50
2023-01-12T02:03:34.003Z,98752.75
2023-01-12T02:04:37.909Z,98748.84
2023-01-12T02:05:40.748Z,98754.63
2023-01-12T02:06:42.618Z,98753.53
2023-01-12T02:07:43.827Z,98755.38
2023-01-12T02:08:53.740Z,98756.41
2023-01-12T02:09:55.530Z,98757.72
2023-01-12T02:10:58.017Z,98758.47
2023-01-12T02:11:59.423Z,98750.81
2023-01-12T02:13:01.029Z,98757.16
2023-01-12T02:14:02.225Z,98751.63
2023-01-12T02:15:03.715Z,98744.75
2023-01-12T02:16:05.195Z,98746.56
2023-01-12T02:17:16.297Z,98748.19
2023-01-12T02:18:24.512Z,98741.88
2023-01-12T02:19:39.476Z,98730.53
2023-01-12T02:21:02.662Z,98735.00
2023-01-12T02:22:13.640Z,98735.81
2023-01-12T02:23:33.643Z,98726.59
2023-01-12T02:24:55.277Z,98728.94
2023-01-12T02:25:56.651Z,98724.44
2023-01-12T02:27:03.707Z,98725.53
2023-01-12T02:28:21.735Z,98719.19
2023-01-12T02:29:23.365Z,98717.06
2023-01-12T02:30:27.648Z,98723.13
2023-01-12T02:31:41.184Z,98714.13
2023-01-12T02:32:42.425Z,98708.31
2023-01-12T02:34:02.191Z,98712.25
2023-01-12T02:35:06.274Z,98705.94
2023-01-12T02:36:19.153Z,98708.81
2023-01-12T02:37:20.535Z,98704.88
2023-01-12T02:38:24.829Z,98699.34
2023-01-12T02:39:29.867Z,98699.59
2023-01-12T02:40:36.837Z,98702.25
2023-01-12T02:41:58.356Z,98695.91
2023-01-12T02:43:06.559Z,98693.81
2023-01-12T02:44:13.241Z,98695.06
2023-01-12T02:45:20.135Z,98683.22
2023-01-12T02:46:23.764Z,98684.47
2023-01-12T02:47:28.513Z,98683.41
2023-01-12T02:48:43.662Z,98682.13
2023-01-12T02:49:47.664Z,98681.34
2023-01-12T02:50:52.377Z,98680.56
2023-01-12T02:51:59.139Z,98683.22
2023-01-12T02:53:04.723Z,98682.44
2023-01-12T02:54:08.577Z,98680.84
2023-01-12T02:55:10.512Z,98675.34
2023-01-12T02:56:14.505Z,98674.84
2023-01-12T02:57:16.231Z,98668.00
2023-01-12T02:58:18.743Z,98670.06
2023-01-12T02:59:25.876Z,98669.84
2023-01-12T03:00:27.691Z,98667.97
2023-01-12T03:01:29.714Z,98678.72
2023-01-12T03:02:33.614Z,98674.56
2023-01-12T03:03:35.198Z,98676.41
2023-01-12T03:04:36.634Z,98679.84
2023-01-12T03:05:41.125Z,98670.59
2023-01-12T03:06:42.392Z,98674.06
2023-01-12T03:07:47.370Z,98665.91
2023-01-12T03:08:49.445Z,98669.06
2023-01-12T03:09:52.993Z,98669.06
2023-01-12T03:11:06.594Z,98668.03
2023-01-12T03:12:13.667Z,98679.13
2023-01-12T03:13:16.348Z,98686.53
2023-01-12T03:14:17.858Z,98685.22
2023-01-12T03:15:19.230Z,98691.03
2023-01-12T03:16:29.758Z,98688.97
2023-01-12T03:17:36.208Z,98684.47
2023-01-12T03:18:48.607Z,98681.31
2023-01-12T03:19:50.267Z,98672.88
2023-01-12T03:20:57.636Z,98674.19
2023-01-12T03:22:00.428Z,98682.34
2023-01-12T03:23:06.609Z,98684.44
2023-01-12T03:24:12.797Z,98676.53
2023-01-12T03:25:15.918Z,98675.97
2023-01-12T03:26:20.802Z,98671.25
2023-01-12T03:27:23.972Z,98672.56
2023-01-12T03:28:28.756Z,98674.94
2023-01-12T03:29:34.939Z,98669.94
2023-01-12T03:30:45.974Z,98669.69
2023-01-12T03:31:47.408Z,98670.47
2023-01-12T03:32:50.175Z,98670.75
2023-01-12T03:33:51.467Z,98674.66
2023-01-12T03:34:53.377Z,98675.19
2023-01-12T03:36:03.984Z,98673.03
2023-01-12T03:37:18.994Z,98671.72
2023-01-12T03:38:36.183Z,98669.06
2023-01-12T03:39:41.980Z,98669.56
2023-01-12T03:40:48.704Z,98669.56
2023-01-12T03:41:59.169Z,98679.78
2023-01-12T03:43:06.834Z,98665.06
2023-01-12T03:44:12.035Z,98673.22
2023-01-12T03:45:21.991Z,98675.88
2023-01-12T03:46:25.165Z,98673.00
2023-01-12T03:47:28.898Z,98674.06
2023-01-12T03:48:48.141Z,98679.34
2023-01-12T03:49:49.407Z,98668.78
2023-01-12T03:51:02.351Z,98670.34
2023-01-12T03:52:05.092Z,98673.44
2023-01-12T03:53:07.518Z,98669.53
2023-01-12T03:54:10.884Z,98672.66
2023-01-12T03:55:15.788Z,98668.16
2023-01-12T03:56:19.000Z,98672.94
2023-01-12T03:57:20.399Z,98662.69
2023-01-12T03:58:23.211Z,98671.09
2023-01-12T03:59:24.696Z,98669.00
2023-01-12T04:00:26.958Z,98671.88
2023-01-12T04:01:28.300Z,98667.38
2023-01-12T04:02:29.655Z,98669.19
2023-01-12T04:03:31.035Z,98658.88
2023-01-12T04:04:32.433Z,98664.66
2023-01-12T04:05:33.744Z,98661.03
2023-01-12T04:06:35.016Z,98658.59
2023-01-12T04:07:36.338Z,98655.75
2023-01-12T04:08:37.739Z,98660.75
2023-01-12T04:09:38.945Z,98662.84
2023-01-12T04:10:40.572Z,98657.28
2023-01-12T04:11:41.830Z,98660.16
2023-01-12T04:12:43.020Z,98650.94
2023-01-12T04:13:44.225Z,98647.47
2023-01-12T04:14:48.105Z,98650.09
2023-01-12T04:15:49.544Z,98655.09
2023-01-12T04:16:51.535Z,98650.38
2023-01-12T04:17:53.083Z,98656.16
2023-01-12T04:18:54.333Z,98648.81
2023-01-12T04:19:55.565Z,98653.53
2023-01-12T04:20:56.819Z,98651.97
2023-01-12T04:21:58.057Z,98644.03
2023-01-12T04:22:59.317Z,98650.44
2023-01-12T04:24:00.739Z,98644.34
2023-01-12T04:25:02.274Z,98644.88
2023-01-12T04:26:03.569Z,98644.88
2023-01-12T04:27:04.895Z,98643.31
2023-01-12T04:28:06.252Z,98640.66
2023-01-12T04:29:07.688Z,98631.19
2023-01-12T04:30:09.862Z,98634.09
2023-01-12T04:31:11.080Z,98631.19
2023-01-12T04:32:12.432Z,98628.53
2023-01-12T04:33:13.693Z,98631.97
2023-01-12T04:34:14.942Z,98631.97
2023-01-12T04:35:16.579Z,98626.41
2023-01-12T04:36:18.703Z,98631.97
2023-01-12T04:37:19.952Z,98629.28
2023-01-12T04:38:21.192Z,98628.50
2023-01-12T04:39:22.394Z,98620.84
2023-01-12T04:40:23.650Z,98620.00
2023-01-12T04:41:24.866Z,98617.38
2023-01-12T04:42:26.218Z,98616.28
2023-01-12T04:43:27.463Z,98614.19
2023-01-12T04:44:31.067Z,98612.38
2023-01-12T04:45:33.473Z,98610.03
2023-01-12T04:46:35.010Z,98612.38
2023-01-12T04:47:36.231Z,98609.75
2023-01-12T04:48:38.168Z,98601.53
2023-01-12T04:49:39.371Z,98605.53
2023-01-12T04:50:41.067Z,98608.72
2023-01-12T04:51:42.407Z,98599.25
2023-01-12T04:52:43.746Z,98602.66
2023-01-12T04:53:45.240Z,98602.94
2023-01-12T04:54:46.550Z,98604.56
2023-01-12T04:55:47.749Z,98610.91
2023-01-12T04:56:49.028Z,98606.13
2023-01-12T04:57:50.323Z,98600.63
2023-01-12T04:58:55.791Z,98601.69
2023-01-12T04:59:57.445Z,98597.72
2023-01-12T05:01:07.418Z,98608.00
2023-01-12T05:02:08.900Z,98605.06
2023-01-12T05:03:13.879Z,98603.72
2023-01-12T05:04:15.394Z,98617.16
2023-01-12T05:05:16.828Z,98612.94
2023-01-12T05:06:18.318Z,98611.66
2023-01-12T05:07:19.841Z,98607.88
2023-01-12T05:08:21.388Z,98603.69
2023-01-12T05:09:22.745Z,98609.19
2023-01-12T05:10:24.288Z,98606.50
2023-01-12T05:11:28.619Z,98603.31
2023-01-12T05:12:29.995Z,98612.84
2023-01-12T05:13:31.860Z,98613.13
2023-01-12T05:14:38.434Z,98608.09
2023-01-12T05:15:50.224Z,98609.16
2023-01-12T05:17:16.524Z,98606.25
2023-01-12T05:18:17.765Z,98610.19
2023-01-12T05:19:19.068Z,98608.63
2023-01-12T05:20:20.736Z,98612.34
2023-01-12T05:21:23.311Z,98611.84
2023-01-12T05:22:24.593Z,98608.38
2023-01-12T05:23:25.937Z,98613.94
2023-01-12T05:24:27.194Z,98615.03
2023-01-12T05:25:28.411Z,98611.03
2023-01-12T05:26:29.635Z,98612.38
2023-01-12T05:27:30.878Z,98605.00
2023-01-12T05:28:32.202Z,98611.31
2023-01-12T05:29:33.439Z,98602.63
2023-01-12T05:30:35.224Z,98604.47
2023-01-12T05:31:36.787Z,98609.97
2023-01-12T05:32:38.787Z,98606.28
2023-01-12T05:33:40.984Z,98601.78
2023-01-12T05:34:42.265Z,98593.06
2023-01-12T05:35:43.530Z,98594.38
2023-01-12T05:36:45.074Z,98600.13
2023-01-12T05:37:46.328Z,98599.63
2023-01-12T05:38:47.635Z,98592.22
2023-01-12T05:39:49.012Z,98601.72
2023-01-12T05:40:50.239Z,98593.25
2023-01-12T05:41:51.516Z,98599.56
2023-01-12T05:42:52.875Z,98601.72
2023-01-12T05:43:54.180Z,98596.38
2023-01-12T05:44:55.609Z,98592.16
2023-01-12T05:45:56.914Z,98588.75
2023-01-12T05:46:58.130Z,98585.81
2023-01-12T05:47:59.732Z,98591.38
2023-01-12T05:49:01.053Z,98600.09
2023-01-12T05:50:02.971Z,98588.75
2023-01-12T05:51:05.136Z,98591.38
2023-01-12T05:52:06.382Z,98592.47
2023-01-12T05:53:08.249Z,98595.88
2023-01-12T05:54:09.600Z,98593.44
2023-01-12T05:55:10.899Z,98596.59
2023-01-12T05:56:20.091Z,98590.25
2023-01-12T06:01:34.806Z,98593.50
2023-01-12T06:02:36.179Z,98589.19
2023-01-12T06:03:38.413Z,98584.75
2023-01-12T06:04:39.889Z,98589.53
2023-01-12T06:05:41.300Z,98574.53
2023-01-12T06:06:42.568Z,98582.22
2023-01-12T06:07:43.820Z,98584.84
2023-01-12T06:08:45.435Z,98584.09
2023-01-12T06:09:46.668Z,98583.84
2023-01-12T06:10:47.940Z,98581.97
2023-01-12T06:11:49.211Z,98584.88
2023-01-12T06:12:50.481Z,98578.03
2023-01-12T06:13:51.738Z,98574.38
2023-01-12T06:14:53.012Z,98573.88
2023-01-12T06:15:54.281Z,98583.69
2023-01-12T06:16:55.533Z,98585.53
2023-01-12T06:17:56.890Z,98578.69
2023-01-12T06:18:58.082Z,98579.53
2023-01-12T06:19:59.287Z,98575.84
2023-01-12T06:21:00.585Z,98573.47
2023-01-12T06:22:01.856Z,98569.22
2023-01-12T06:23:03.880Z,98566.34
2023-01-12T06:24:05.242Z,98557.09
2023-01-12T06:25:06.776Z,98551.53
2023-01-12T06:26:10.486Z,98563.63
2023-01-12T06:27:12.015Z,98560.00
2023-01-12T06:28:13.343Z,98561.78
2023-01-12T06:29:14.629Z,98560.16
2023-01-12T06:30:16.033Z,98549.06
2023-01-12T06:31:17.288Z,98552.78
2023-01-12T06:32:18.526Z,98552.25
2023-01-12T06:33:19.784Z,98546.47
2023-01-12T06:34:21.035Z,98548.88
2023-01-12T06:35:22.307Z,98558.59
2023-01-12T06:36:23.537Z,98550.63
2023-01-12T06:37:25.196Z,98540.59
2023-01-12T06:38:27.844Z,98538.22
2023-01-12T06:39:29.751Z,98548.78
2023-01-12T06:40:31.658Z,98544.28
2023-01-12T06:41:35.607Z,98546.66
2023-01-12T06:42:39.543Z,98543.44
2023-01-12T06:43:40.784Z,98540.03
2023-01-12T06:44:42.046Z,98542.44
2023-01-12T06:45:43.446Z,98546.13
2023-01-12T06:46:44.736Z,98556.13
2023-01-12T06:47:49.384Z,98555.59
2023-01-12T06:48:50.783Z,98554.56
2023-01-12T06:49:54.812Z,98553.47
2023-01-12T06:51:00.220Z,98562.06
2023-01-12T06:52:01.536Z,98560.78
2023-01-12T06:53:03.646Z,98561.28
2023-01-12T06:54:05.090Z,98560.78
2023-01-12T06:55:06.553Z,98555.78
2023-01-12T06:56:07.815Z,98552.88
2023-01-12T06:57:09.024Z,98558.94
2023-01-12T06:58:10.240Z,98554.16
2023-01-12T06:59:11.687Z,98550.50
2023-01-12T07:00:13.257Z,98550.97
2023-01-12T07:01:14.655Z,98554.69
2023-01-12T07:02:16.487Z,98554.44
2023-01-12T07:03:18.776Z,98544.38
2023-01-12T07:04:20.170Z,98544.38
2023-01-12T07:05:21.552Z,98548.94
2023-01-12T07:06:22.780Z,98558.16
2023-01-12T07:07:24.020Z,98555.72
2023-01-12T07:08:25.353Z,98548.25
2023-01-12T07:09:26.689Z,98559.06
2023-01-12T07:10:27.916Z,98548.97
2023-01-12T07:11:29.171Z,98557.19
2023-01-12T07:12:30.438Z,98552.41
2023-01-12T07:13:31.728Z,98553.78
2023-01-12T07:14:33.055Z,98552.47
2023-01-12T07:15:34.286Z,98544.78
2023-01-12T07:16:35.532Z,98547.63
2023-01-12T07:17:36.811Z,98554.56
2023-01-12T07:18:38.118Z,98553.91
2023-01-12T07:19:41.470Z,98561.28
2023-01-12T07:20:43.011Z,98565.00
2023-01-12T07:21:44.292Z,98562.63
2023-01-12T07:22:45.553Z,98568.91
2023-01-12T07:23:46.819Z,98566.25
2023-01-12T07:24:48.404Z,98568.13
2023-01-12T07:25:49.737Z,98573.03
2023-01-12T07:26:50.985Z,98566.50
2023-01-12T07:27:52.886Z,98565.72
2023-01-12T07:28:55.141Z,98572.84
2023-01-12T07:29:56.340Z,98566.19
2023-01-12T07:31:01.259Z,98562.28
2023-01-12T07:32:02.656Z,98564.41
2023-01-12T07:33:11.095Z,98568.59
2023-01-12T07:34:12.347Z,98566.97
2023-01-12T07:35:14.080Z,98574.72
2023-01-12T07:36:15.326Z,98567.44
2023-01-12T07:37:16.523Z,98560.59
2023-01-12T07:38:17.739Z,98565.88
2023-01-12T07:39:18.982Z,98562.22
2023-01-12T07:40:20.256Z,98563.50
2023-01-12T07:41:21.517Z,98567.44
2023-01-12T07:42:22.759Z,98568.72
2023-01-12T07:43:24.908Z,98563.72
2023-01-12T07:44:26.201Z,98557.59
2023-01-12T07:45:27.797Z,98558.94
2023-01-12T07:46:29.234Z,98566.38
2023-01-12T07:47:30.601Z,98553.88
2023-01-12T07:48:31.825Z,98560.16
2023-01-12T07:49:33.069Z,98548.25
2023-01-12T07:50:34.351Z,98560.88
2023-01-12T07:51:35.659Z,98557.16
2023-01-12T07:52:36.956Z,98552.56
2023-01-12T07:53:38.209Z,98556.06
2023-01-12T07:54:39.481Z,98548.63
2023-01-12T07:55:40.714Z,98557.03
2023-01-12T07:56:44.177Z,98557.03
2023-01-12T07:57:55.268Z,98554.69
2023-01-12T07:58:56.526Z,98554.97
2023-01-12T07:59:57.744Z,98548.91
2023-01-12T08:00:59.601Z,98540.97
2023-01-12T08:02:00.931Z,98550.53
2023-01-12T08:03:06.587Z,98550.75
2023-01-12T08:04:07.780Z,98548.25
2023-01-12T08:05:09.221Z,98552.19
2023-01-12T08:06:10.679Z,98550.31
2023-01-12T08:07:12.318Z,98547.69
2023-01-12T08:08:13.549Z,98548.53
2023-01-12T08:09:14.818Z,98551.97
2023-01-12T08:10:16.282Z,98553.53
2023-01-12T08:11:19.574Z,98554.28
2023-01-12T08:12:20.848Z,98553.25
2023-01-12T08:13:22.125Z,98551.97
2023-01-12T08:14:28.100Z,98545.81
2023-01-12T08:15:32.469Z,98545.53
2023-01-12T08:16:39.268Z,98548.69
2023-01-12T08:17:43.818Z,98548.47
2023-01-12T08:18:47.828Z,98545.34
2023-01-12T08:19:55.338Z,98536.34
2023-01-12T08:20:58.693Z,98541.31
2023-01-12T08:22:00.746Z,98535.47
2023-01-12T08:23:07.595Z,98529.69
2023-01-12T08:24:08.814Z,98534.69
2023-01-12T08:25:12.383Z,98539.97
2023-01-12T08:26:15.367Z,98542.53
2023-01-12T08:27:18.232Z,98539.81
2023-01-12T08:28:21.873Z,98538.19
2023-01-12T08:29:36.457Z,98542.31
2023-01-12T08:30:37.712Z,98536.31
2023-01-12T08:31:39.048Z,98542.41
2023-01-12T08:32:40.395Z,98541.84
2023-01-12T08:33:42.084Z,98540.66
2023-01-12T08:34:45.115Z,98547.91
2023-01-12T08:35:46.776Z,98542.09
2023-01-12T08:36:48.020Z,98536.25
2023-01-12T08:37:49.308Z,98554.22
2023-01-12T08:38:50.655Z,98552.81
2023-01-12T08:39:52.370Z,98550.16
2023-01-12T08:40:53.729Z,98545.44
2023-01-12T08:41:55.155Z,98546.53
2023-01-12T08:42:56.406Z,98542.09
2023-01-12T08:43:58.133Z,98549.53
2023-01-12T08:44:59.464Z,98554.66
2023-01-12T08:46:00.864Z,98553.66
2023-01-12T08:47:03.028Z,98550.03
2023-01-12T08:48:04.489Z,98547.97
2023-01-12T08:49:10.007Z,98552.75
2023-01-12T08:50:13.017Z,98560.13
2023-01-12T08:51:14.368Z,98555.31
2023-01-12T08:52:15.910Z,98553.75
2023-01-12T08:53:17.347Z,98552.41
2023-01-12T08:54:19.220Z,98554.81
2023-01-12T08:55:20.461Z,98548.75
2023-01-12T08:56:21.765Z,98555.59
2023-01-12T08:57:22.991Z,98553.25
2023-01-12T08:58:24.252Z,98554.53
2023-01-12T08:59:25.487Z,98545.75
2023-01-12T09:00:26.936Z,98563.38
2023-01-12T09:01:28.505Z,98552.81
2023-01-12T09:02:29.805Z,98558.59
2023-01-12T09:03:31.137Z,98562.75
2023-01-12T09:04:32.387Z,98564.31
2023-01-12T09:05:33.648Z,98563.78
2023-01-12T09:06:36.276Z,98554.09
2023-01-12T09:07:37.478Z,98556.53
2023-01-12T09:08:38.802Z,98552.81
2023-01-12T09:09:40.085Z,98555.44
2023-01-12T09:10:41.355Z,98557.03
2023-01-12T09:11:43.692Z,98550.38
2023-01-12T09:12:44.930Z,98558.59
2023-01-12T09:13:46.159Z,98564.16
2023-01-12T09:14:47.401Z,98562.53
2023-01-12T09:16:01.402Z,98561.16
2023-01-12T09:17:12.069Z,98567.34
2023-01-12T09:18:13.334Z,98564.22
2023-01-12T09:19:14.558Z,98574.03
2023-01-12T09:20:16.015Z,98563.94
2023-01-12T09:21:19.101Z,98576.28
2023-01-12T09:22:20.409Z,98574.41
2023-01-12T09:23:21.610Z,98580.00
2023-01-12T09:24:22.795Z,98576.06
2023-01-12T09:25:24.108Z,98582.16
2023-01-12T09:26:26.527Z,98579.53
2023-01-12T09:27:27.782Z,98578.44
2023-01-12T09:28:29.069Z,98586.00
2023-01-12T09:29:30.295Z,98580.22
2023-01-12T09:30:31.503Z,98585.69
2023-01-12T09:31:33.242Z,98590.41
2023-01-12T09:32:37.459Z,98584.13
2023-01-12T09:33:39.550Z,98589.63
2023-01-12T09:34:40.920Z,98589.63
2023-01-12T09:35:42.456Z,98586.50
2023-01-12T09:36:43.761Z,98593.06
2023-01-12T09:37:45.119Z,98586.13
2023-01-12T09:38:46.797Z,98585.56
2023-01-12T09:39:48.042Z,98581.53
2023-01-12T09:40:49.369Z,98575.75
2023-01-12T09:41:50.696Z,98574.38
2023-01-12T09:42:52.298Z,98575.47
2023-01-12T09:43:53.511Z,98579.19
2023-01-12T09:44:54.759Z,98582.63
2023-01-12T09:45:56.118Z,98578.09
2023-01-12T09:46:58.141Z,98582.53
2023-01-12T09:47:59.409Z,98582.84
2023-01-12T09:49:00.749Z,98566.38
2023-01-12T09:50:10.226Z,98572.44
2023-01-12T09:51:32.016Z,98575.28
2023-01-12T09:52:36.424Z,98567.19
2023-01-12T09:53:38.909Z,98557.88
2023-01-12T09:54:40.266Z,98557.59
2023-01-12T09:55:44.552Z,98560.81
2023-01-12T09:56:54.809Z,98553.66
2023-01-12T09:58:14.915Z,98552.38
2023-01-12T09:59:23.149Z,98548.44
2023-01-12T10:00:24.511Z,98542.09
2023-01-12T10:01:29.701Z,98543.28
2023-01-12T10:02:36.031Z,98547.22
2023-01-12T10:03:38.236Z,98541.13
2023-01-12T10:04:40.017Z,98535.03
2023-01-12T10:05:47.342Z,98528.88
2023-01-12T10:06:48.741Z,98528.09
2023-01-12T10:07:52.024Z,98529.59
2023-01-12T10:08:53.270Z,98525.06
2023-01-12T10:09:54.552Z,98526.13
2023-01-12T10:11:11.531Z,98526.94
2023-01-12T10:12:22.311Z,98528.19
2023-01-12T10:13:28.071Z,98527.63
2023-01-12T10:14:29.256Z,98521.44
2023-01-12T10:15:33.589Z,98523.31
2023-01-12T10:16:40.647Z,98522.31
2023-01-12T10:17:51.442Z,98518.97
2023-01-12T10:18:58.299Z,98524.56
2023-01-12T10:20:10.182Z,98516.31
2023-01-12T10:21:11.399Z,98519.19
2023-01-12T10:22:21.708Z,98522.13
2023-01-12T10:23:26.513Z,98512.31
2023-01-12T10:24:27.718Z,98515.75
2023-01-12T10:25:29.003Z,98512.53
2023-01-12T10:26:37.608Z,98509.00
2023-01-12T10:27:41.665Z,98516.63
2023-01-12T10:28:45.257Z,98518.19
2023-01-12T10:29:46.678Z,98518.41
2023-01-12T10:30:47.946Z,98513.56
2023-01-12T10:31:49.302Z,98514.19
2023-01-12T10:32:50.820Z,98512.31
2023-01-12T10:34:05.288Z,98513.31
2023-01-12T10:35:12.277Z,98514.97
2023-01-12T10:36:18.201Z,98509.75
2023-01-12T10:37:19.409Z,98504.63
2023-01-12T10:38:22.197Z,98508.06
2023-01-12T10:39:35.130Z,98509.34
2023-01-12T10:40:36.463Z,98505.03
2023-01-12T10:41:37.892Z,98507.97
2023-01-12T10:42:39.160Z,98511.13
2023-01-12T10:43:41.732Z,98507.38
2023-01-12T10:44:43.089Z,98512.88
2023-01-12T10:45:44.606Z,98513.56
2023-01-12T10:47:05.873Z,98509.38
2023-01-12T10:48:16.067Z,98509.72
2023-01-12T10:49:20.067Z,98499.75
2023-01-12T10:50:22.714Z,98503.66
2023-01-12T10:51:24.033Z,98501.00
2023-01-12T10:52:35.811Z,98502.88
2023-01-12T10:53:55.300Z,98496.47
2023-01-12T10:54:58.875Z,98496.47
2023-01-12T10:56:00.326Z,98490.41
2023-01-12T10:57:05.882Z,98485.41
2023-01-12T10:58:20.630Z,98491.78
2023-01-12T10:59:25.327Z,98488.75
2023-01-12T11:00:27.612Z,98491.97
2023-01-12T11:01:45.511Z,98489.31
2023-01-12T11:02:46.808Z,98479.13
2023-01-12T11:03:48.165Z,98474.31
2023-01-12T11:04:50.411Z,98474.16
2023-01-12T11:05:51.632Z,98476.28
2023-01-12T11:07:05.387Z,98475.50
2023-01-12T11:08:22.846Z,98467.84
2023-01-12T11:09:25.517Z,98474.22
2023-01-12T11:10:26.787Z,98481.91
2023-01-12T11:11:29.725Z,98475.72
2023-01-12T11:12:34.103Z,98471.78
2023-01-12T11:13:35.431Z,98479.72
2023-01-12T11:14:36.912Z,98468.03
2023-01-12T11:15:38.332Z,98474.44
2023-01-12T11:16:47.864Z,98472.94
2023-01-12T11:18:07.916Z,98474.63
2023-01-12T11:19:15.473Z,98466.97
2023-01-12T11:20:39.672Z,98465.69
2023-01-12T11:21:42.826Z,98463.63
2023-01-12T11:22:45.025Z,98461.25
2023-01-12T11:24:04.731Z,98462.28
2023-01-12T11:25:16.564Z,98456.56
2023-01-12T11:26:20.695Z,98463.25
2023-01-12T11:27:25.472Z,98458.13
2023-01-12T11:28:30.267Z,98454.41
2023-01-12T11:29:35.866Z,98456.38
2023-01-12T11:30:42.845Z,98455.00
2023-01-12T11:31:45.644Z,98452.34
2023-01-12T11:33:02.114Z,98459.50
2023-01-12T11:34:14.421Z,98461.84
2023-01-12T11:35:27.917Z,98461.94
2023-01-12T11:36:32.700Z,98451.41
2023-01-12T11:37:35.404Z,98457.00
2023-01-12T11:38:40.990Z,98462.00
2023-01-12T11:39:42.537Z,98463.09
2023-01-12T11:40:44.387Z,98457.97
2023-01-12T11:41:55.025Z,98451.09
2023-01-12T11:42:59.836Z,98450.44
2023-01-12T11:44:20.704Z,98449.84
2023-01-12T11:45:25.707Z,98443.56
2023-01-12T11:46:26.960Z,98447.00
2023-01-12T11:47:41.626Z,98435.81
2023-01-12T11:48:48.920Z,98435.97
2023-01-12T11:50:01.884Z,98443.53
2023-01-12T11:51:03.298Z,98441.66
2023-01-12T11:52:04.654Z,98442.63
2023-01-12T11:53:10.582Z,98447.28
2023-01-12T11:54:16.460Z,98435.63
2023-01-12T11:55:22.585Z,98436.56
2023-01-12T11:56:26.601Z,98432.22
2023-01-12T11:57:43.172Z,98433.50
2023-01-12T11:58:53.368Z,98437.25
2023-01-12T11:59:57.700Z,98437.72
2023-01-12T12:01:12.554Z,98433.38
2023-01-12T12:02:32.228Z,98441.41
2023-01-12T12:03:36.414Z,98436.56
2023-01-12T12:04:56.524Z,98433.44
2023-01-12T12:06:03.651Z,98432.22
2023-01-12T12:07:16.863Z,98433.66
2023-01-12T12:08:37.029Z,98427.44
2023-01-12T12:09:48.483Z,98435.13
2023-01-12T12:10:58.753Z,98432.19
2023-01-12T12:12:11.950Z,98417.56
2023-01-12T12:13:13.188Z,98425.84
2023-01-12T12:14:26.651Z,98420.09
2023-01-12T12:15:35.264Z,98419.47
2023-01-12T12:16:48.441Z,98422.75
2023-01-12T12:17:55.522Z,98426.38
2023-01-12T12:18:59.776Z,98421.56
2023-01-12T12:20:13.219Z,98423.44
2023-01-12T12:21:33.016Z,98421.41
2023-01-12T12:22:52.979Z,98414.06
2023-01-12T12:24:00.156Z,98408.44
2023-01-12T12:25:20.208Z,98410.78
2023-01-12T12:26:26.833Z,98400.50
2023-01-12T12:27:47.444Z,98404.09
2023-01-12T12:28:57.146Z,98402.84
2023-01-12T12:30:09.423Z,98400.38
2023-01-12T12:31:16.757Z,98408.34
2023-01-12T12:32:36.816Z,98396.13
2023-01-12T12:33:47.864Z,98401.78